HK1133 SKAR-SKMD
Flight info
| Callsign | HK1133 |
|---|---|
| Flight time | N/A |
| Altitude | 15000 |
| Route | PEI1E PEI W3 ISVON DCT RNG DCT VASAG DCT ISTAX |
| Aircraft | DHC7/M-SDE2E3FGRY/S |
Departure
| Time | 2026-04-20 19:52 |
|---|---|
| Airport | El Eden Airport (SKAR) |
Arrival
| Time | N/A |
|---|---|
| Airport | Enrique Olaya Herrera Airport (SKMD) |
| Time | Latitude | Longitude | Altitude | Speed | Heading |
|---|---|---|---|---|---|
| 2026-04-20 19:48 | 4.44803 | -75.76722 | 3961 ft | 34 kts | 192° |
| 2026-04-20 19:48 | 4.44561 | -75.76779 | 3963 ft | 38 kts | 194° |
| 2026-04-20 19:48 | 4.44350 | -75.76828 | 3962 ft | 10 kts | 192° |
| 2026-04-20 19:49 | 4.44316 | -75.76834 | 3964 ft | 3 kts | 191° |
| 2026-04-20 19:49 | 4.44247 | -75.76849 | 3962 ft | 15 kts | 192° |
| 2026-04-20 19:49 | 4.44188 | -75.76855 | 3960 ft | 9 kts | 161° |
| 2026-04-20 19:49 | 4.44190 | -75.76872 | 3960 ft | 14 kts | 11° |
| 2026-04-20 19:50 | 4.44237 | -75.76862 | 3961 ft | 0 kts | 15° |
| 2026-04-20 19:51 | 4.44272 | -75.76853 | 3962 ft | 31 kts | 14° |
| 2026-04-20 19:51 | 4.44773 | -75.76731 | 3963 ft | 107 kts | 13° |
| 2026-04-20 19:51 | 4.45573 | -75.76644 | 4108 ft | 118 kts | 8° |
| 2026-04-20 19:52 | 4.46458 | -75.76610 | 4239 ft | 135 kts | 359° |
| 2026-04-20 19:52 | 4.47341 | -75.76647 | 4790 ft | 125 kts | 353° |
| 2026-04-20 19:52 | 4.48189 | -75.76982 | 5008 ft | 139 kts | 321° |
| 2026-04-20 19:52 | 4.48642 | -75.77807 | 5331 ft | 139 kts | 273° |
| 2026-04-20 19:53 | 4.48623 | -75.78768 | 5571 ft | 138 kts | 282° |
| 2026-04-20 19:53 | 4.49089 | -75.79595 | 5701 ft | 149 kts | 322° |
| 2026-04-20 19:53 | 4.49951 | -75.80125 | 6047 ft | 138 kts | 341° |
| 2026-04-20 19:53 | 4.50874 | -75.80389 | 6389 ft | 137 kts | 344° |
| 2026-04-20 19:54 | 4.51828 | -75.80526 | 6676 ft | 139 kts | 356° |
| 2026-04-20 19:54 | 4.52800 | -75.80603 | 6949 ft | 142 kts | 352° |
| 2026-04-20 19:54 | 4.53776 | -75.80734 | 7317 ft | 141 kts | 353° |
| 2026-04-20 19:54 | 4.54754 | -75.80839 | 7685 ft | 141 kts | 353° |
| 2026-04-20 19:55 | 4.55734 | -75.80947 | 8056 ft | 142 kts | 353° |
| 2026-04-20 19:55 | 4.56718 | -75.81059 | 8418 ft | 142 kts | 352° |
| 2026-04-20 19:55 | 4.57705 | -75.81172 | 8785 ft | 143 kts | 352° |
| 2026-04-20 19:55 | 4.58696 | -75.81284 | 9170 ft | 144 kts | 352° |
| 2026-04-20 19:56 | 4.59692 | -75.81405 | 9532 ft | 145 kts | 351° |
| 2026-04-20 19:56 | 4.60679 | -75.81523 | 9886 ft | 145 kts | 352° |
| 2026-04-20 19:56 | 4.61687 | -75.81641 | 10233 ft | 146 kts | 352° |
| 2026-04-20 19:56 | 4.62699 | -75.81762 | 10553 ft | 147 kts | 351° |
| 2026-04-20 19:57 | 4.63719 | -75.81885 | 10870 ft | 148 kts | 352° |
| 2026-04-20 19:57 | 4.64744 | -75.82003 | 11222 ft | 149 kts | 352° |
| 2026-04-20 19:57 | 4.65777 | -75.82131 | 11550 ft | 150 kts | 352° |
| 2026-04-20 19:57 | 4.66817 | -75.82255 | 11890 ft | 151 kts | 352° |
| 2026-04-20 19:58 | 4.67865 | -75.82377 | 12230 ft | 152 kts | 352° |
| 2026-04-20 19:58 | 4.68905 | -75.82502 | 12560 ft | 153 kts | 351° |
| 2026-04-20 19:58 | 4.69968 | -75.82630 | 12899 ft | 154 kts | 352° |
| 2026-04-20 19:58 | 4.71037 | -75.82756 | 13233 ft | 155 kts | 352° |
| 2026-04-20 19:59 | 4.72114 | -75.82886 | 13567 ft | 156 kts | 352° |
| 2026-04-20 19:59 | 4.73197 | -75.83013 | 13889 ft | 158 kts | 352° |
| 2026-04-20 19:59 | 4.74288 | -75.83143 | 14179 ft | 159 kts | 352° |
| 2026-04-20 19:59 | 4.75387 | -75.83274 | 14465 ft | 159 kts | 352° |
| 2026-04-20 20:00 | 4.76490 | -75.83407 | 14753 ft | 160 kts | 352° |
| 2026-04-20 20:00 | 4.77600 | -75.83538 | 15037 ft | 160 kts | 352° |
| 2026-04-20 20:00 | 4.78716 | -75.83457 | 15099 ft | 172 kts | 21° |
| 2026-04-20 20:00 | 4.79867 | -75.82961 | 15121 ft | 189 kts | 20° |
| 2026-04-20 20:01 | 4.81153 | -75.82528 | 15128 ft | 201 kts | 17° |
| 2026-04-20 20:01 | 4.82514 | -75.82083 | 15124 ft | 210 kts | 19° |
| 2026-04-20 20:01 | 4.83920 | -75.81585 | 15121 ft | 217 kts | 19° |
| 2026-04-20 20:01 | 4.85363 | -75.81077 | 15118 ft | 222 kts | 19° |
| 2026-04-20 20:02 | 4.86837 | -75.80567 | 15114 ft | 225 kts | 19° |
| 2026-04-20 20:02 | 4.88322 | -75.80051 | 15112 ft | 227 kts | 19° |
| 2026-04-20 20:02 | 4.89819 | -75.79528 | 15104 ft | 229 kts | 19° |
| 2026-04-20 20:02 | 4.91304 | -75.79010 | 15100 ft | 229 kts | 19° |
| 2026-04-20 20:03 | 4.92813 | -75.78483 | 14977 ft | 230 kts | 19° |
| 2026-04-20 20:03 | 4.94323 | -75.77955 | 15021 ft | 230 kts | 19° |
| 2026-04-20 20:03 | 4.95836 | -75.77428 | 15035 ft | 230 kts | 19° |
| 2026-04-20 20:03 | 4.97349 | -75.76900 | 15045 ft | 230 kts | 19° |
| 2026-04-20 20:04 | 4.98861 | -75.76372 | 15055 ft | 230 kts | 19° |
| 2026-04-20 20:04 | 5.00380 | -75.75841 | 15062 ft | 231 kts | 19° |
| 2026-04-20 20:04 | 5.01894 | -75.75311 | 15073 ft | 231 kts | 19° |
| 2026-04-20 20:04 | 5.03411 | -75.74781 | 15077 ft | 231 kts | 19° |
| 2026-04-20 20:05 | 5.04904 | -75.74259 | 15084 ft | 231 kts | 19° |
| 2026-04-20 20:05 | 5.06420 | -75.73731 | 15091 ft | 231 kts | 19° |
| 2026-04-20 20:05 | 5.07935 | -75.73202 | 15094 ft | 230 kts | 19° |
| 2026-04-20 20:05 | 5.09448 | -75.72672 | 15096 ft | 231 kts | 19° |
| 2026-04-20 20:06 | 5.10963 | -75.72144 | 15098 ft | 231 kts | 19° |
| 2026-04-20 20:06 | 5.12478 | -75.71615 | 15098 ft | 230 kts | 19° |
| 2026-04-20 20:06 | 5.13991 | -75.71084 | 15096 ft | 230 kts | 19° |
| 2026-04-20 20:06 | 5.15507 | -75.70555 | 15075 ft | 230 kts | 19° |
| 2026-04-20 20:07 | 5.17001 | -75.70036 | 15069 ft | 230 kts | 19° |
| 2026-04-20 20:07 | 5.18516 | -75.69508 | 15064 ft | 231 kts | 19° |
| 2026-04-20 20:07 | 5.20035 | -75.68980 | 15058 ft | 231 kts | 19° |
| 2026-04-20 20:07 | 5.21555 | -75.68449 | 15051 ft | 231 kts | 19° |
| 2026-04-20 20:08 | 5.23074 | -75.67919 | 15046 ft | 231 kts | 19° |
| 2026-04-20 20:08 | 5.24594 | -75.67390 | 15037 ft | 231 kts | 19° |
| 2026-04-20 20:08 | 5.26115 | -75.66862 | 15027 ft | 231 kts | 19° |
| 2026-04-20 20:08 | 5.27634 | -75.66331 | 15017 ft | 231 kts | 19° |
| 2026-04-20 20:09 | 5.29158 | -75.65799 | 15003 ft | 232 kts | 19° |
| 2026-04-20 20:09 | 5.30660 | -75.65277 | 14991 ft | 232 kts | 19° |
| 2026-04-20 20:09 | 5.32182 | -75.64747 | 14977 ft | 232 kts | 19° |
| 2026-04-20 20:09 | 5.33704 | -75.64215 | 14963 ft | 232 kts | 19° |
| 2026-04-20 20:10 | 5.35224 | -75.63685 | 14978 ft | 231 kts | 19° |
| 2026-04-20 20:10 | 5.36746 | -75.63156 | 14978 ft | 231 kts | 19° |
| 2026-04-20 20:10 | 5.38268 | -75.62625 | 14979 ft | 232 kts | 19° |
| 2026-04-20 20:10 | 5.39791 | -75.62095 | 14980 ft | 232 kts | 19° |
| 2026-04-20 20:11 | 5.41315 | -75.61563 | 14974 ft | 232 kts | 19° |
| 2026-04-20 20:11 | 5.42838 | -75.61033 | 14977 ft | 232 kts | 19° |
| 2026-04-20 20:11 | 5.44341 | -75.60513 | 14975 ft | 231 kts | 19° |
| 2026-04-20 20:11 | 5.45862 | -75.59986 | 14976 ft | 231 kts | 19° |
| 2026-04-20 20:12 | 5.47381 | -75.59453 | 14961 ft | 231 kts | 19° |
| 2026-04-20 20:12 | 5.48900 | -75.58924 | 14960 ft | 231 kts | 18° |
| 2026-04-20 20:12 | 5.50419 | -75.58398 | 14961 ft | 231 kts | 19° |
| 2026-04-20 20:13 | 5.53458 | -75.57341 | 14957 ft | 231 kts | 19° |
| 2026-04-20 20:13 | 5.54977 | -75.56811 | 14957 ft | 231 kts | 18° |
| 2026-04-20 20:13 | 5.56472 | -75.56293 | 14958 ft | 231 kts | 19° |
| 2026-04-20 20:13 | 5.57989 | -75.55765 | 14958 ft | 231 kts | 18° |
| 2026-04-20 20:14 | 5.59509 | -75.55237 | 14959 ft | 231 kts | 19° |
| 2026-04-20 20:14 | 5.61030 | -75.54708 | 14951 ft | 231 kts | 19° |
| 2026-04-20 20:14 | 5.62547 | -75.54178 | 14951 ft | 231 kts | 18° |
| 2026-04-20 20:14 | 5.64068 | -75.53650 | 14951 ft | 231 kts | 18° |
| 2026-04-20 20:15 | 5.65587 | -75.53123 | 14953 ft | 231 kts | 19° |
| 2026-04-20 20:15 | 5.67102 | -75.52595 | 14953 ft | 231 kts | 19° |
| 2026-04-20 20:15 | 5.68620 | -75.52066 | 14952 ft | 231 kts | 18° |
| 2026-04-20 20:15 | 5.70117 | -75.51546 | 14953 ft | 231 kts | 18° |
| 2026-04-20 20:16 | 5.71634 | -75.51018 | 14953 ft | 231 kts | 18° |
| 2026-04-20 20:16 | 5.73155 | -75.50487 | 14953 ft | 232 kts | 18° |
| 2026-04-20 20:16 | 5.74676 | -75.49959 | 14952 ft | 231 kts | 18° |
| 2026-04-20 20:16 | 5.76195 | -75.49431 | 14972 ft | 231 kts | 18° |
| 2026-04-20 20:17 | 5.77714 | -75.48900 | 14970 ft | 231 kts | 19° |
| 2026-04-20 20:17 | 5.79233 | -75.48371 | 14971 ft | 231 kts | 18° |
| 2026-04-20 20:17 | 5.80752 | -75.47844 | 14970 ft | 231 kts | 19° |
| 2026-04-20 20:17 | 5.82268 | -75.47316 | 14986 ft | 231 kts | 18° |
| 2026-04-20 20:18 | 5.83762 | -75.46796 | 15008 ft | 231 kts | 18° |
| 2026-04-20 20:18 | 5.85281 | -75.46268 | 15026 ft | 231 kts | 19° |
| 2026-04-20 20:18 | 5.86800 | -75.45737 | 15045 ft | 231 kts | 18° |
| 2026-04-20 20:18 | 5.88318 | -75.45209 | 15065 ft | 231 kts | 18° |
| 2026-04-20 20:19 | 5.89840 | -75.44680 | 15090 ft | 232 kts | 19° |
| 2026-04-20 20:19 | 5.91358 | -75.44150 | 15107 ft | 232 kts | 19° |
| 2026-04-20 20:19 | 5.92890 | -75.43617 | 15127 ft | 232 kts | 18° |
| 2026-04-20 20:19 | 5.94416 | -75.43086 | 15145 ft | 232 kts | 18° |
| 2026-04-20 20:20 | 5.95942 | -75.42554 | 15158 ft | 232 kts | 19° |
| 2026-04-20 20:20 | 5.97463 | -75.42025 | 15177 ft | 230 kts | 18° |
| 2026-04-20 20:20 | 5.99000 | -75.41793 | 15187 ft | 226 kts | 358° |
| 2026-04-20 20:20 | 6.00571 | -75.41852 | 15204 ft | 226 kts | 359° |
| 2026-04-20 20:21 | 6.02150 | -75.41841 | 15222 ft | 227 kts | 1° |
| 2026-04-20 20:21 | 6.03734 | -75.41821 | 15241 ft | 228 kts | 360° |
| 2026-04-20 20:21 | 6.05320 | -75.41830 | 15261 ft | 228 kts | 359° |
| 2026-04-20 20:21 | 6.06908 | -75.41841 | 15280 ft | 228 kts | 360° |
| 2026-04-20 20:22 | 6.08497 | -75.41843 | 15287 ft | 228 kts | 360° |
| 2026-04-20 20:22 | 6.10075 | -75.41842 | 15130 ft | 228 kts | 360° |
| 2026-04-20 20:22 | 6.11662 | -75.41845 | 14944 ft | 228 kts | 360° |
| 2026-04-20 20:22 | 6.13244 | -75.41852 | 14784 ft | 227 kts | 359° |
| 2026-04-20 20:23 | 6.14799 | -75.41859 | 14622 ft | 226 kts | 359° |
| 2026-04-20 20:23 | 6.16375 | -75.41863 | 14474 ft | 226 kts | 360° |
| 2026-04-20 20:23 | 6.17944 | -75.41867 | 14324 ft | 227 kts | 359° |
| 2026-04-20 20:23 | 6.19532 | -75.41876 | 14302 ft | 228 kts | 359° |
| 2026-04-20 20:24 | 6.21120 | -75.41881 | 14302 ft | 228 kts | 359° |
| 2026-04-20 20:24 | 6.22707 | -75.41881 | 14303 ft | 228 kts | 359° |
| 2026-04-20 20:24 | 6.24275 | -75.41966 | 14291 ft | 225 kts | 348° |
| 2026-04-20 20:24 | 6.25720 | -75.42557 | 14281 ft | 226 kts | 328° |
| 2026-04-20 20:25 | 6.26907 | -75.43581 | 14266 ft | 226 kts | 309° |
| 2026-04-20 20:25 | 6.27687 | -75.44925 | 14258 ft | 226 kts | 291° |
| 2026-04-20 20:25 | 6.28199 | -75.46412 | 14248 ft | 226 kts | 289° |
| 2026-04-20 20:25 | 6.28750 | -75.47891 | 14083 ft | 226 kts | 291° |
| 2026-04-20 20:26 | 6.29318 | -75.49363 | 14089 ft | 226 kts | 291° |
| 2026-04-20 20:26 | 6.29866 | -75.50844 | 14091 ft | 226 kts | 290° |
| 2026-04-20 20:26 | 6.30222 | -75.52357 | 14087 ft | 223 kts | 272° |
| 2026-04-20 20:26 | 6.30037 | -75.53902 | 14089 ft | 224 kts | 254° |
| 2026-04-20 20:27 | 6.29364 | -75.55308 | 14094 ft | 224 kts | 235° |
| 2026-04-20 20:27 | 6.28269 | -75.56416 | 14096 ft | 225 kts | 216° |
| 2026-04-20 20:27 | 6.26878 | -75.57116 | 14096 ft | 224 kts | 200° |
| 2026-04-20 20:27 | 6.25440 | -75.57654 | 14101 ft | 223 kts | 202° |
| 2026-04-20 20:28 | 6.24006 | -75.58250 | 14104 ft | 223 kts | 204° |
| 2026-04-20 20:28 | 6.22575 | -75.58852 | 14100 ft | 223 kts | 204° |
| 2026-04-20 20:28 | 6.21028 | -75.59481 | 13091 ft | 259 kts | 203° |
| 2026-04-20 20:28 | 6.19326 | -75.60208 | 11479 ft | 279 kts | 205° |
| 2026-04-20 20:29 | 6.17586 | -75.61138 | 9674 ft | 292 kts | 212° |
| 2026-04-20 20:29 | 6.15980 | -75.62256 | 8728 ft | 269 kts | 216° |
| 2026-04-20 20:29 | 6.14468 | -75.63176 | 8078 ft | 236 kts | 206° |
| 2026-04-20 20:29 | 6.13041 | -75.63688 | 7594 ft | 205 kts | 194° |
| 2026-04-20 20:30 | 6.11687 | -75.63844 | 6897 ft | 192 kts | 179° |
| 2026-04-20 20:30 | 6.10552 | -75.63713 | 7334 ft | 124 kts | 173° |
| 2026-04-20 20:30 | 6.09823 | -75.63342 | 7310 ft | 123 kts | 136° |
| 2026-04-20 20:30 | 6.09492 | -75.62545 | 7122 ft | 130 kts | 92° |